Time;durP1;ratioP1;P1;durP2;ratioP2;P2;SDS_P1;SDS_P2;PMS_P1;PMS_P2;Temp;Humidity;BMP_temperature;BMP_pressure;BME280_temperature;BME280_humidity;BME280_pressure;Samples;Min_cycle;Max_cycle;Signal;HPM_P1;HPM_P2
2023/02/01 00:00:30;;;;;;;13.47;4.83;;;;;;;;;;5111912;28;20627;-75
2023/02/01 00:02:57;;;;;;;15.83;5.67;;;;;;;;;;5112093;28;20200;-75
2023/02/01 00:05:24;;;;;;;14.50;4.97;;;;;;;;;;5112068;28;20224;-75
2023/02/01 00:07:51;;;;;;;12.30;4.10;;;;;;;;;;5112487;28;20605;-74
2023/02/01 00:10:20;;;;;;;18.33;4.53;;;;;;;;;;5112490;28;20260;-75
2023/02/01 00:12:47;;;;;;;18.67;4.23;;;;;;;;;;5112224;28;20204;-75
2023/02/01 00:15:15;;;;;;;14.80;3.50;;;;;;;;;;5112189;28;20284;-75
2023/02/01 00:17:42;;;;;;;13.80;3.93;;;;;;;;;;5111986;28;20316;-75
2023/02/01 00:20:10;;;;;;;15.17;3.83;;;;;;;;;;5112294;28;20233;-75
2023/02/01 00:22:37;;;;;;;14.87;3.93;;;;;;;;;;5111962;28;20208;-74
2023/02/01 00:25:05;;;;;;;13.60;3.17;;;;;;;;;;5112163;28;20284;-75
2023/02/01 00:27:33;;;;;;;12.37;3.63;;;;;;;;;;5111917;28;20205;-75
2023/02/01 00:30:00;;;;;;;17.53;3.63;;;;;;;;;;5111738;28;20732;-75
2023/02/01 00:32:28;;;;;;;19.00;3.70;;;;;;;;;;5111927;28;20225;-76
2023/02/01 00:34:55;;;;;;;17.13;3.50;;;;;;;;;;5111730;28;20289;-76
2023/02/01 00:37:23;;;;;;;14.60;3.83;;;;;;;;;;5111760;28;20222;-74
2023/02/01 00:39:50;;;;;;;11.83;3.70;;;;;;;;;;5111480;28;20199;-75
2023/02/01 00:42:17;;;;;;;16.83;3.47;;;;;;;;;;5111933;28;20216;-75
2023/02/01 00:44:46;;;;;;;14.43;2.93;;;;;;;;;;5111288;28;20243;-74
2023/02/01 00:47:13;;;;;;;11.90;3.13;;;;;;;;;;5112133;28;20666;-75
2023/02/01 00:49:41;;;;;;;15.80;3.20;;;;;;;;;;5111410;28;20654;-75
2023/02/01 00:52:08;;;;;;;11.27;2.90;;;;;;;;;;5111619;28;20651;-75
2023/02/01 00:54:37;;;;;;;19.53;3.33;;;;;;;;;;5111714;28;20229;-75
2023/02/01 00:57:04;;;;;;;16.83;3.40;;;;;;;;;;5111671;28;20276;-75
2023/02/01 00:59:31;;;;;;;13.77;2.80;;;;;;;;;;5111877;28;20284;-76
2023/02/01 01:02:00;;;;;;;15.07;3.67;;;;;;;;;;5111495;28;20233;-74
2023/02/01 01:04:27;;;;;;;15.23;2.90;;;;;;;;;;5111080;28;20630;-75
2023/02/01 01:06:54;;;;;;;15.77;2.63;;;;;;;;;;5116200;28;20283;-75
2023/02/01 01:09:21;;;;;;;17.23;3.67;;;;;;;;;;5115981;28;20201;-75
2023/02/01 01:11:50;;;;;;;13.83;2.90;;;;;;;;;;5115399;27;20323;-75
2023/02/01 01:14:18;;;;;;;13.43;3.00;;;;;;;;;;5115482;28;20198;-75
2023/02/01 01:16:45;;;;;;;14.57;3.27;;;;;;;;;;5116147;28;20283;-76
2023/02/01 01:19:13;;;;;;;15.00;2.77;;;;;;;;;;5115254;27;20190;-74
2023/02/01 01:21:41;;;;;;;13.87;2.87;;;;;;;;;;5115288;28;20672;-75
2023/02/01 01:24:08;;;;;;;14.87;2.80;;;;;;;;;;5115039;28;20751;-75
2023/02/01 01:26:35;;;;;;;14.67;2.67;;;;;;;;;;5115267;28;20690;-74
2023/02/01 01:29:02;;;;;;;17.07;3.17;;;;;;;;;;5115592;28;20795;-74
2023/02/01 01:31:30;;;;;;;11.27;2.63;;;;;;;;;;5115334;28;20319;-74
2023/02/01 01:33:58;;;;;;;14.60;3.37;;;;;;;;;;5114829;28;20203;-75
2023/02/01 01:36:28;;;;;;;13.03;3.00;;;;;;;;;;5115056;27;20670;-75
2023/02/01 01:38:55;;;;;;;15.43;2.97;;;;;;;;;;5114879;28;20221;-74
2023/02/01 01:41:23;;;;;;;12.90;2.47;;;;;;;;;;5115224;28;20374;-75
2023/02/01 01:43:51;;;;;;;13.50;2.80;;;;;;;;;;5115288;28;20273;-76
2023/02/01 01:46:19;;;;;;;11.97;2.83;;;;;;;;;;5114789;28;20219;-75
2023/02/01 01:48:47;;;;;;;13.83;2.80;;;;;;;;;;5114987;28;20205;-75
2023/02/01 01:51:15;;;;;;;15.07;2.80;;;;;;;;;;5114922;28;20311;-76
2023/02/01 01:53:46;;;;;;;14.83;2.77;;;;;;;;;;5115083;28;20235;-76
2023/02/01 01:56:14;;;;;;;17.47;2.83;;;;;;;;;;5115255;28;20231;-76
2023/02/01 01:58:42;;;;;;;15.60;3.37;;;;;;;;;;5115029;28;20218;-75
2023/02/01 02:01:09;;;;;;;14.03;2.90;;;;;;;;;;5114762;28;20563;-75
2023/02/01 02:03:39;;;;;;;13.17;2.47;;;;;;;;;;5114616;28;20235;-75
2023/02/01 02:06:08;;;;;;;17.37;3.10;;;;;;;;;;5114848;28;20200;-75
2023/02/01 02:08:35;;;;;;;11.87;2.50;;;;;;;;;;5114999;28;20197;-75
2023/02/01 02:11:04;;;;;;;13.13;2.87;;;;;;;;;;5114214;28;20314;-75
2023/02/01 02:13:34;;;;;;;17.80;2.87;;;;;;;;;;5114231;28;20201;-74
2023/02/01 02:16:07;;;;;;;12.10;2.87;;;;;;;;;;5113303;28;20200;-75
2023/02/01 02:18:38;;;;;;;14.77;3.00;;;;;;;;;;5114520;28;20273;-74
2023/02/01 02:21:13;;;;;;;12.73;2.80;;;;;;;;;;5114367;28;20224;-75
2023/02/01 02:23:49;;;;;;;17.40;2.87;;;;;;;;;;5114290;28;20284;-75
2023/02/01 02:26:25;;;;;;;15.27;3.13;;;;;;;;;;5114956;28;20615;-75
2023/02/01 02:29:05;;;;;;;15.47;2.83;;;;;;;;;;5114029;28;20256;-75
2023/02/01 02:31:41;;;;;;;16.73;3.17;;;;;;;;;;5114092;28;20234;-75
2023/02/01 02:34:14;;;;;;;15.77;2.63;;;;;;;;;;5114185;28;20227;-74
2023/02/01 02:36:46;;;;;;;12.87;2.67;;;;;;;;;;5114180;28;20291;-75
2023/02/01 02:39:19;;;;;;;16.60;3.20;;;;;;;;;;5114360;28;20285;-74
2023/02/01 02:47:24;;;;;;;17.97;3.10;;;;;;;;;;5051361;28;20214;-75
2023/02/01 02:55:23;;;;;;;14.83;3.17;;;;;;;;;;5050542;28;20322;-74
2023/02/01 03:06:12;;;;;;;16.07;2.90;;;;;;;;;;5050724;28;20295;-74
2023/02/01 03:08:44;;;;;;;14.97;3.30;;;;;;;;;;5050311;28;20669;-75
2023/02/01 03:11:12;;;;;;;12.93;3.07;;;;;;;;;;5050578;28;20223;-74
2023/02/01 03:13:42;;;;;;;14.17;3.23;;;;;;;;;;5049995;28;20283;-76
2023/02/01 03:16:13;;;;;;;15.23;3.70;;;;;;;;;;5050220;28;20290;-75
2023/02/01 03:18:44;;;;;;;12.70;3.20;;;;;;;;;;5050240;28;20552;-75
2023/02/01 03:21:15;;;;;;;16.93;2.97;;;;;;;;;;5067785;28;20224;-74
2023/02/01 03:23:44;;;;;;;16.17;2.90;;;;;;;;;;5113007;28;20749;-75
2023/02/01 03:26:13;;;;;;;14.60;3.40;;;;;;;;;;5113376;28;20232;-76
2023/02/01 03:28:44;;;;;;;14.97;3.30;;;;;;;;;;5112080;28;20219;-75
2023/02/01 03:31:13;;;;;;;14.70;2.83;;;;;;;;;;5112562;28;20319;-75
2023/02/01 03:33:40;;;;;;;17.40;3.30;;;;;;;;;;5105307;28;20289;-75
2023/02/01 03:36:14;;;;;;;16.10;3.10;;;;;;;;;;5092687;28;20692;-75
2023/02/01 03:38:45;;;;;;;16.13;2.80;;;;;;;;;;5092115;28;20684;-75
2023/02/01 03:41:15;;;;;;;18.97;3.07;;;;;;;;;;5092935;28;20278;-74
2023/02/01 03:43:47;;;;;;;13.30;2.33;;;;;;;;;;5091812;28;20289;-76
2023/02/01 03:46:16;;;;;;;20.23;2.80;;;;;;;;;;5092523;28;20297;-75
2023/02/01 03:48:43;;;;;;;14.77;2.70;;;;;;;;;;5092344;28;20224;-76
2023/02/01 03:51:11;;;;;;;12.97;2.80;;;;;;;;;;5092287;28;20790;-74
2023/02/01 03:53:38;;;;;;;16.60;3.10;;;;;;;;;;5091974;28;20198;-75
2023/02/01 03:56:08;;;;;;;16.17;2.73;;;;;;;;;;5092252;28;20197;-75
2023/02/01 03:58:37;;;;;;;15.70;2.97;;;;;;;;;;5092266;28;20277;-75
2023/02/01 04:01:04;;;;;;;16.27;3.03;;;;;;;;;;5091986;28;20690;-75
2023/02/01 04:03:32;;;;;;;11.80;2.27;;;;;;;;;;5091964;28;20696;-75
2023/02/01 04:05:59;;;;;;;11.43;2.40;;;;;;;;;;5091708;28;20197;-75
2023/02/01 04:08:26;;;;;;;13.10;2.80;;;;;;;;;;5092079;28;20645;-76
2023/02/01 04:10:53;;;;;;;18.67;3.27;;;;;;;;;;5093605;28;20248;-74
2023/02/01 04:13:22;;;;;;;15.17;3.20;;;;;;;;;;5112177;28;20285;-75
2023/02/01 04:15:50;;;;;;;20.90;3.47;;;;;;;;;;5111871;28;20223;-75
2023/02/01 04:18:17;;;;;;;15.73;2.70;;;;;;;;;;5112237;28;20201;-75
2023/02/01 04:20:45;;;;;;;12.53;2.57;;;;;;;;;;5112678;28;20272;-75
2023/02/01 04:23:15;;;;;;;13.23;2.40;;;;;;;;;;5112245;28;20202;-75
2023/02/01 04:25:42;;;;;;;12.70;3.00;;;;;;;;;;5111715;28;20213;-75
2023/02/01 04:28:09;;;;;;;13.60;2.77;;;;;;;;;;5112067;28;20658;-75
2023/02/01 04:30:38;;;;;;;12.63;2.90;;;;;;;;;;5111948;28;20189;-75
2023/02/01 04:33:06;;;;;;;16.50;2.80;;;;;;;;;;5111615;28;20229;-75
2023/02/01 04:35:33;;;;;;;14.57;2.60;;;;;;;;;;5111475;28;20753;-74
2023/02/01 04:38:00;;;;;;;14.67;2.50;;;;;;;;;;5111768;28;20227;-75
2023/02/01 04:40:27;;;;;;;11.07;2.63;;;;;;;;;;5110934;28;20289;-75
2023/02/01 04:42:54;;;;;;;16.47;3.40;;;;;;;;;;5111994;28;20293;-75
2023/02/01 04:45:22;;;;;;;15.53;3.67;;;;;;;;;;5112535;28;20202;-74
2023/02/01 04:47:50;;;;;;;16.93;3.50;;;;;;;;;;5111557;28;20279;-76
2023/02/01 04:50:18;;;;;;;23.03;4.13;;;;;;;;;;5111514;28;20223;-74
2023/02/01 04:52:46;;;;;;;15.93;3.40;;;;;;;;;;5111941;28;20314;-76
2023/02/01 04:55:13;;;;;;;17.53;3.27;;;;;;;;;;5111408;28;20194;-74
2023/02/01 04:57:40;;;;;;;15.37;3.10;;;;;;;;;;5111956;28;20563;-75
2023/02/01 05:00:08;;;;;;;16.70;2.80;;;;;;;;;;5111426;28;20203;-75
2023/02/01 05:02:35;;;;;;;20.17;3.30;;;;;;;;;;5111817;28;20209;-75
2023/02/01 05:05:04;;;;;;;19.77;3.57;;;;;;;;;;5111366;28;20233;-76
2023/02/01 05:07:31;;;;;;;17.20;3.30;;;;;;;;;;5111277;28;20283;-75
2023/02/01 05:09:58;;;;;;;15.87;3.07;;;;;;;;;;5111098;28;20312;-76
2023/02/01 05:15:11;;;;;;;18.03;3.00;;;;;;;;;;5111593;28;20330;-74
2023/02/01 05:17:39;;;;;;;15.27;3.20;;;;;;;;;;5111274;28;20285;-75
2023/02/01 05:20:09;;;;;;;13.97;2.63;;;;;;;;;;5111633;28;20196;-75
2023/02/01 05:22:36;;;;;;;10.33;2.60;;;;;;;;;;5111080;28;20190;-74
2023/02/01 05:25:03;;;;;;;13.40;2.80;;;;;;;;;;5111000;28;20227;-75
2023/02/01 05:27:31;;;;;;;16.80;3.43;;;;;;;;;;5111061;28;20669;-75
2023/02/01 05:29:58;;;;;;;16.17;3.10;;;;;;;;;;5111737;28;20313;-75
2023/02/01 05:32:25;;;;;;;17.23;3.00;;;;;;;;;;5111128;28;20371;-76
2023/02/01 05:34:52;;;;;;;18.93;3.50;;;;;;;;;;5111558;28;20280;-75
2023/02/01 05:37:21;;;;;;;17.77;3.07;;;;;;;;;;5111125;28;20235;-75
2023/02/01 05:39:48;;;;;;;20.07;3.70;;;;;;;;;;5110585;28;20219;-76
2023/02/01 05:42:15;;;;;;;16.53;3.30;;;;;;;;;;5111448;28;20289;-76
2023/02/01 05:44:43;;;;;;;14.77;2.40;;;;;;;;;;5111035;28;20289;-76
2023/02/01 05:47:10;;;;;;;23.30;3.33;;;;;;;;;;5111302;28;20198;-75
2023/02/01 05:49:37;;;;;;;15.87;2.77;;;;;;;;;;5111027;28;20197;-75
2023/02/01 05:52:05;;;;;;;21.50;3.47;;;;;;;;;;5113526;28;20253;-77
2023/02/01 05:54:33;;;;;;;15.80;2.97;;;;;;;;;;5115034;28;20620;-76
2023/02/01 05:57:00;;;;;;;14.97;3.27;;;;;;;;;;5114883;28;20297;-75
2023/02/01 05:59:27;;;;;;;14.90;4.00;;;;;;;;;;5114860;28;20194;-76
2023/02/01 06:01:55;;;;;;;24.43;4.00;;;;;;;;;;5114833;28;20292;-76
2023/02/01 06:04:22;;;;;;;19.63;4.43;;;;;;;;;;5114767;28;20194;-75
2023/02/01 06:06:50;;;;;;;20.20;3.60;;;;;;;;;;5114597;28;20202;-75
2023/02/01 06:09:18;;;;;;;20.17;4.03;;;;;;;;;;5114469;28;20205;-76
2023/02/01 06:11:46;;;;;;;17.47;3.73;;;;;;;;;;5114151;28;20318;-76
2023/02/01 06:14:13;;;;;;;17.40;3.70;;;;;;;;;;5114558;28;20289;-76
2023/02/01 06:16:41;;;;;;;19.87;3.67;;;;;;;;;;5114581;28;20238;-75
2023/02/01 06:19:08;;;;;;;18.93;3.70;;;;;;;;;;5114352;28;20634;-76
2023/02/01 06:21:36;;;;;;;17.60;4.33;;;;;;;;;;5114311;28;20211;-75
2023/02/01 06:24:03;;;;;;;18.20;4.40;;;;;;;;;;5114397;28;20291;-77
2023/02/01 06:26:30;;;;;;;19.83;4.50;;;;;;;;;;5114186;28;20223;-74
2023/02/01 06:28:59;;;;;;;16.60;4.23;;;;;;;;;;5114738;27;20323;-75
2023/02/01 06:31:26;;;;;;;21.30;3.20;;;;;;;;;;5113863;28;20654;-76
2023/02/01 06:33:54;;;;;;;16.50;3.67;;;;;;;;;;5114322;28;20236;-76
2023/02/01 06:36:21;;;;;;;19.63;3.60;;;;;;;;;;5114247;28;20224;-76
2023/02/01 06:38:48;;;;;;;17.70;3.10;;;;;;;;;;5118815;27;20198;-76
2023/02/01 06:41:16;;;;;;;18.67;2.90;;;;;;;;;;5108820;27;20288;-75
2023/02/01 06:43:43;;;;;;;18.03;2.90;;;;;;;;;;5102221;28;20791;-75
2023/02/01 06:46:13;;;;;;;18.93;3.80;;;;;;;;;;5125421;27;20219;-76
2023/02/01 06:48:40;;;;;;;20.70;4.07;;;;;;;;;;5113339;28;20279;-76
2023/02/01 06:51:07;;;;;;;16.20;3.90;;;;;;;;;;5113620;28;20229;-79
2023/02/01 06:53:35;;;;;;;17.10;3.93;;;;;;;;;;5113477;28;20312;-76
2023/02/01 06:56:03;;;;;;;18.63;4.20;;;;;;;;;;5113767;28;20317;-76
2023/02/01 06:58:31;;;;;;;13.60;3.30;;;;;;;;;;5114134;28;20228;-77
2023/02/01 07:00:58;;;;;;;16.83;3.67;;;;;;;;;;5104661;28;20287;-76
2023/02/01 07:03:27;;;;;;;14.80;3.57;;;;;;;;;;5097185;28;20291;-76
2023/02/01 07:05:58;;;;;;;19.57;4.23;;;;;;;;;;5113028;28;20202;-76
2023/02/01 07:08:25;;;;;;;20.90;4.97;;;;;;;;;;5112959;28;20192;-76
2023/02/01 07:10:53;;;;;;;13.93;4.00;;;;;;;;;;5099484;28;20277;-77
2023/02/01 07:13:20;;;;;;;17.03;4.43;;;;;;;;;;5110894;28;20679;-76
2023/02/01 07:15:47;;;;;;;16.90;4.30;;;;;;;;;;5112994;28;20285;-76
2023/02/01 07:18:15;;;;;;;18.10;4.53;;;;;;;;;;5113000;28;20285;-76
2023/02/01 07:20:43;;;;;;;20.40;4.53;;;;;;;;;;5112607;28;20199;-77
2023/02/01 07:23:11;;;;;;;24.63;6.27;;;;;;;;;;5112882;28;20232;-77
2023/02/01 07:25:39;;;;;;;24.60;5.90;;;;;;;;;;5112771;28;20240;-75
2023/02/01 07:28:06;;;;;;;18.53;4.47;;;;;;;;;;5112575;28;20282;-75
2023/02/01 07:30:33;;;;;;;17.47;4.13;;;;;;;;;;5112569;28;20280;-76
2023/02/01 07:33:00;;;;;;;16.73;4.47;;;;;;;;;;5112328;28;20253;-76
2023/02/01 07:35:28;;;;;;;17.93;4.60;;;;;;;;;;5112467;28;20197;-75
2023/02/01 07:37:58;;;;;;;22.33;4.70;;;;;;;;;;5112455;28;20194;-76
2023/02/01 07:40:28;;;;;;;21.77;4.43;;;;;;;;;;5112618;28;20219;-77
2023/02/01 07:42:55;;;;;;;21.93;5.27;;;;;;;;;;5111555;28;20202;-75
2023/02/01 07:45:22;;;;;;;21.57;5.53;;;;;;;;;;5112619;28;20201;-76
2023/02/01 07:47:50;;;;;;;18.03;5.27;;;;;;;;;;5112188;28;20293;-76
2023/02/01 07:50:17;;;;;;;22.10;5.23;;;;;;;;;;5111894;28;20317;-75
2023/02/01 07:52:45;;;;;;;20.07;4.63;;;;;;;;;;5111992;28;20323;-75
2023/02/01 07:55:13;;;;;;;18.47;4.67;;;;;;;;;;5112041;28;20247;-75
2023/02/01 07:57:41;;;;;;;16.27;3.87;;;;;;;;;;5112560;28;20293;-75
2023/02/01 08:02:54;;;;;;;22.37;5.43;;;;;;;;;;5111917;28;20264;-75
2023/02/01 08:05:21;;;;;;;23.40;5.30;;;;;;;;;;5111667;28;20627;-76
2023/02/01 08:07:50;;;;;;;17.30;5.40;;;;;;;;;;5112230;28;20226;-75
2023/02/01 08:10:19;;;;;;;15.90;4.43;;;;;;;;;;5111863;28;20201;-75
2023/02/01 08:12:48;;;;;;;19.93;4.77;;;;;;;;;;5105459;28;20773;-75
2023/02/01 08:15:16;;;;;;;15.57;4.60;;;;;;;;;;5105324;28;20297;-73
2023/02/01 08:17:47;;;;;;;16.90;4.20;;;;;;;;;;5111631;28;20208;-76
2023/02/01 08:20:15;;;;;;;19.70;5.23;;;;;;;;;;5112697;28;20199;-76
2023/02/01 08:22:43;;;;;;;19.57;5.17;;;;;;;;;;5111730;28;20205;-77
2023/02/01 08:25:12;;;;;;;14.53;4.67;;;;;;;;;;5111763;28;20669;-76
2023/02/01 08:27:41;;;;;;;13.57;4.27;;;;;;;;;;5111558;28;20233;-76
2023/02/01 08:30:09;;;;;;;18.63;4.80;;;;;;;;;;5111904;28;20234;-75
2023/02/01 08:32:36;;;;;;;23.43;4.53;;;;;;;;;;5111248;28;20251;-76
2023/02/01 08:35:03;;;;;;;17.37;4.03;;;;;;;;;;5111336;28;20225;-75
2023/02/01 08:37:31;;;;;;;18.73;4.10;;;;;;;;;;5111733;28;20256;-76
2023/02/01 08:39:58;;;;;;;21.20;4.50;;;;;;;;;;5111594;28;20314;-75
2023/02/01 08:45:12;;;;;;;18.47;4.17;;;;;;;;;;5109942;28;20644;-76
2023/02/01 08:47:39;;;;;;;20.23;4.23;;;;;;;;;;5110535;28;20201;-74
2023/02/01 08:50:06;;;;;;;17.57;4.70;;;;;;;;;;5111373;28;20280;-75
2023/02/01 08:52:34;;;;;;;16.80;3.90;;;;;;;;;;5111666;28;20255;-75
2023/02/01 08:55:01;;;;;;;19.47;3.70;;;;;;;;;;5111553;28;20215;-76
2023/02/01 08:57:28;;;;;;;17.57;3.93;;;;;;;;;;5111661;28;20200;-75
2023/02/01 08:59:55;;;;;;;16.60;3.57;;;;;;;;;;5111207;28;20679;-75
2023/02/01 09:02:24;;;;;;;16.07;4.03;;;;;;;;;;5110389;28;20742;-76
2023/02/01 09:04:51;;;;;;;19.40;4.40;;;;;;;;;;5111581;28;20217;-76
2023/02/01 09:07:19;;;;;;;23.37;5.30;;;;;;;;;;5105386;28;20244;-75
2023/02/01 09:09:46;;;;;;;21.33;5.53;;;;;;;;;;5108840;28;20200;-75
2023/02/01 09:12:13;;;;;;;20.10;5.40;;;;;;;;;;5111360;28;20254;-75
2023/02/01 09:14:41;;;;;;;20.87;5.73;;;;;;;;;;5111762;28;20194;-75
2023/02/01 09:17:08;;;;;;;28.03;6.80;;;;;;;;;;5110984;28;20201;-78
2023/02/01 09:19:37;;;;;;;20.87;5.37;;;;;;;;;;5112140;28;20198;-75
2023/02/01 09:22:04;;;;;;;21.33;5.13;;;;;;;;;;5111332;28;20292;-75
2023/02/01 09:24:31;;;;;;;16.63;4.47;;;;;;;;;;5108960;28;20202;-76
2023/02/01 09:26:58;;;;;;;16.87;4.43;;;;;;;;;;5106944;28;20255;-76
2023/02/01 09:29:25;;;;;;;17.27;5.17;;;;;;;;;;5094809;28;20671;-76
2023/02/01 09:31:53;;;;;;;23.33;4.90;;;;;;;;;;5094615;28;20232;-76
2023/02/01 09:34:20;;;;;;;19.13;4.70;;;;;;;;;;5094810;28;20286;-76
2023/02/01 09:36:48;;;;;;;18.60;4.60;;;;;;;;;;5094642;28;20232;-75
2023/02/01 09:39:16;;;;;;;15.37;3.97;;;;;;;;;;5094893;28;20225;-75
2023/02/01 09:41:47;;;;;;;18.83;4.73;;;;;;;;;;5097986;28;20209;-75
2023/02/01 09:44:23;;;;;;;23.73;5.33;;;;;;;;;;5107468;28;20232;-74
2023/02/01 09:46:51;;;;;;;17.67;5.00;;;;;;;;;;5114949;28;20229;-78
2023/02/01 09:49:23;;;;;;;22.03;5.07;;;;;;;;;;5114455;28;20235;-77
2023/02/01 09:51:53;;;;;;;24.50;5.30;;;;;;;;;;5115151;28;20814;-78
2023/02/01 09:54:21;;;;;;;26.37;6.27;;;;;;;;;;5114892;28;20229;-77
2023/02/01 09:56:50;;;;;;;22.83;5.30;;;;;;;;;;5114671;28;20639;-77
2023/02/01 09:59:25;;;;;;;26.53;4.60;;;;;;;;;;5114608;28;20569;-78
2023/02/01 10:01:52;;;;;;;17.70;4.20;;;;;;;;;;5114595;28;20250;-77
2023/02/01 10:04:19;;;;;;;20.27;4.43;;;;;;;;;;5114690;28;20641;-78
2023/02/01 10:06:51;;;;;;;20.10;3.97;;;;;;;;;;5113281;28;20289;-78
2023/02/01 10:09:30;;;;;;;21.73;4.60;;;;;;;;;;5114601;28;20248;-77
2023/02/01 10:12:12;;;;;;;17.60;3.63;;;;;;;;;;5114523;28;20198;-77
2023/02/01 10:14:48;;;;;;;18.43;4.13;;;;;;;;;;5114168;28;20324;-78
2023/02/01 10:17:21;;;;;;;22.93;5.90;;;;;;;;;;5114236;27;20664;-77
2023/02/01 10:19:51;;;;;;;20.27;7.47;;;;;;;;;;5114197;28;20236;-78
2023/02/01 10:22:25;;;;;;;22.70;6.80;;;;;;;;;;5114456;28;20198;-77
2023/02/01 10:24:57;;;;;;;26.47;7.47;;;;;;;;;;5113901;28;20228;-76
2023/02/01 10:27:25;;;;;;;22.93;5.97;;;;;;;;;;5113709;28;20202;-77
2023/02/01 10:29:55;;;;;;;20.07;6.10;;;;;;;;;;5113462;28;20243;-77
2023/02/01 10:32:24;;;;;;;19.43;6.00;;;;;;;;;;5113598;28;20293;-75
2023/02/01 10:34:53;;;;;;;18.20;6.07;;;;;;;;;;5114689;28;20312;-76
2023/02/01 10:37:25;;;;;;;12.93;5.13;;;;;;;;;;5112947;28;20202;-75
2023/02/01 10:39:55;;;;;;;17.97;5.33;;;;;;;;;;5114040;28;20228;-74
2023/02/01 10:42:25;;;;;;;23.77;5.60;;;;;;;;;;5113749;28;20293;-75
2023/02/01 10:44:53;;;;;;;16.33;4.80;;;;;;;;;;5113190;28;20201;-75
2023/02/01 10:47:20;;;;;;;27.83;5.07;;;;;;;;;;5113875;28;20235;-77
2023/02/01 10:49:51;;;;;;;18.00;4.37;;;;;;;;;;5112983;28;20284;-74
2023/02/01 10:52:20;;;;;;;19.93;4.90;;;;;;;;;;5113806;28;20574;-76
2023/02/01 10:54:47;;;;;;;19.57;4.80;;;;;;;;;;5113926;28;20328;-75
2023/02/01 10:57:25;;;;;;;16.77;4.07;;;;;;;;;;5111439;28;20292;-75
2023/02/01 10:59:52;;;;;;;14.47;5.13;;;;;;;;;;5108251;28;20249;-75
2023/02/01 11:02:26;;;;;;;23.03;6.00;;;;;;;;;;5110261;28;20205;-74
2023/02/01 11:04:59;;;;;;;19.13;5.63;;;;;;;;;;5113732;28;20198;-76
2023/02/01 11:07:27;;;;;;;22.70;7.50;;;;;;;;;;5110727;28;20292;-74
2023/02/01 11:09:57;;;;;;;18.10;5.30;;;;;;;;;;5112313;28;20605;-76
2023/02/01 11:12:33;;;;;;;16.67;4.30;;;;;;;;;;5112713;28;20198;-75
2023/02/01 11:15:02;;;;;;;17.13;4.83;;;;;;;;;;5112506;28;20229;-74
2023/02/01 11:17:33;;;;;;;16.93;4.40;;;;;;;;;;5112953;28;20221;-73
2023/02/01 11:20:01;;;;;;;16.20;4.10;;;;;;;;;;5112848;28;20193;-76
2023/02/01 11:22:29;;;;;;;15.53;4.20;;;;;;;;;;5105211;28;20198;-77
2023/02/01 11:24:57;;;;;;;20.33;5.27;;;;;;;;;;5096929;28;20260;-75
2023/02/01 11:27:26;;;;;;;16.20;6.03;;;;;;;;;;5104558;28;20690;-77
2023/02/01 11:29:57;;;;;;;18.83;4.50;;;;;;;;;;5112493;28;20285;-76
2023/02/01 11:32:25;;;;;;;17.87;5.77;;;;;;;;;;5111847;28;20209;-77
2023/02/01 11:34:54;;;;;;;19.10;5.90;;;;;;;;;;5112782;28;20333;-76
2023/02/01 11:37:23;;;;;;;23.27;5.80;;;;;;;;;;5111541;28;20745;-77
2023/02/01 11:40:00;;;;;;;19.80;4.70;;;;;;;;;;5112684;28;20753;-77
2023/02/01 11:42:28;;;;;;;16.87;3.90;;;;;;;;;;5112273;28;20225;-76
2023/02/01 11:45:19;;;;;;;14.33;3.63;;;;;;;;;;5112375;28;20237;-77
2023/02/01 11:47:46;;;;;;;19.40;3.83;;;;;;;;;;5112402;28;20289;-76
2023/02/01 11:50:16;;;;;;;17.07;3.73;;;;;;;;;;5112320;28;20206;-76
2023/02/01 11:52:50;;;;;;;18.23;3.80;;;;;;;;;;5112175;28;20300;-75
2023/02/01 11:55:41;;;;;;;17.67;3.67;;;;;;;;;;5111888;28;20298;-74
2023/02/01 11:58:18;;;;;;;16.80;4.30;;;;;;;;;;5096826;28;20281;-75
2023/02/01 12:00:57;;;;;;;13.47;3.63;;;;;;;;;;5104443;28;20225;-76
2023/02/01 12:03:42;;;;;;;13.93;3.77;;;;;;;;;;5110944;27;20582;-76
2023/02/01 12:06:12;;;;;;;13.43;3.07;;;;;;;;;;5111213;28;20221;-77
2023/02/01 12:08:48;;;;;;;17.13;3.00;;;;;;;;;;5111712;28;20304;-76
2023/02/01 12:11:22;;;;;;;13.83;2.87;;;;;;;;;;5111287;28;20280;-78
2023/02/01 12:13:55;;;;;;;17.97;3.70;;;;;;;;;;5112048;28;20217;-78
2023/02/01 12:16:28;;;;;;;15.80;3.80;;;;;;;;;;5112055;28;20262;-77
2023/02/01 12:19:02;;;;;;;16.50;3.37;;;;;;;;;;5112704;28;20229;-77
2023/02/01 12:21:36;;;;;;;17.27;4.27;;;;;;;;;;5112125;28;20221;-78
2023/02/01 12:24:10;;;;;;;12.30;3.40;;;;;;;;;;5111854;28;20609;-76
2023/02/01 12:26:43;;;;;;;14.20;3.07;;;;;;;;;;5111867;28;20281;-77
2023/02/01 12:29:29;;;;;;;14.03;3.83;;;;;;;;;;5111787;28;20348;-78
2023/02/01 12:32:14;;;;;;;16.40;3.73;;;;;;;;;;5111782;28;20193;-77
2023/02/01 12:34:55;;;;;;;19.20;4.57;;;;;;;;;;5095656;28;20308;-77
2023/02/01 12:37:29;;;;;;;15.93;5.10;;;;;;;;;;5092808;27;20233;-76
2023/02/01 12:40:02;;;;;;;18.17;4.40;;;;;;;;;;5096882;27;20243;-78
2023/02/01 12:42:32;;;;;;;17.43;4.00;;;;;;;;;;5101723;28;20196;-76
2023/02/01 12:45:04;;;;;;;14.33;3.60;;;;;;;;;;5114219;27;20284;-76
2023/02/01 12:47:32;;;;;;;18.93;4.03;;;;;;;;;;5119892;27;20247;-76
2023/02/01 12:50:03;;;;;;;13.93;3.83;;;;;;;;;;5122526;27;20230;-76
2023/02/01 12:52:35;;;;;;;18.23;3.97;;;;;;;;;;5117066;28;20205;-76
2023/02/01 12:55:05;;;;;;;17.63;3.80;;;;;;;;;;5111439;28;20227;-75
2023/02/01 12:57:33;;;;;;;16.87;4.03;;;;;;;;;;5111206;27;20257;-76
2023/02/01 13:00:05;;;;;;;13.97;3.10;;;;;;;;;;5109071;28;20292;-75
2023/02/01 13:02:38;;;;;;;15.97;3.37;;;;;;;;;;5106474;28;20200;-75
2023/02/01 13:05:13;;;;;;;13.63;3.70;;;;;;;;;;5108918;28;20280;-74
2023/02/01 13:07:43;;;;;;;18.20;3.83;;;;;;;;;;5108342;28;20260;-74
2023/02/01 13:10:14;;;;;;;15.63;4.00;;;;;;;;;;5110550;28;20285;-73
2023/02/01 13:12:46;;;;;;;13.93;3.87;;;;;;;;;;5110330;28;20223;-76
2023/02/01 13:15:16;;;;;;;16.53;4.07;;;;;;;;;;5108290;28;20316;-76
2023/02/01 13:17:45;;;;;;;16.67;3.73;;;;;;;;;;5110760;28;20229;-76
2023/02/01 13:20:20;;;;;;;15.93;4.30;;;;;;;;;;5110655;28;20215;-77
2023/02/01 13:22:50;;;;;;;13.47;3.47;;;;;;;;;;5109421;28;20224;-75
2023/02/01 13:25:20;;;;;;;12.63;3.40;;;;;;;;;;5109642;28;20274;-76
2023/02/01 13:27:48;;;;;;;16.80;3.37;;;;;;;;;;5104004;28;20234;-75
2023/02/01 13:30:19;;;;;;;11.07;3.17;;;;;;;;;;5106262;28;20316;-76
2023/02/01 13:32:56;;;;;;;14.27;3.30;;;;;;;;;;5114118;28;20198;-75
2023/02/01 13:35:37;;;;;;;12.93;3.00;;;;;;;;;;5110186;28;20221;-76
2023/02/01 13:38:14;;;;;;;11.63;3.27;;;;;;;;;;5105890;28;20272;-76
2023/02/01 13:40:43;;;;;;;16.33;4.93;;;;;;;;;;5101760;28;20206;-76
2023/02/01 13:43:14;;;;;;;14.50;5.93;;;;;;;;;;5112139;28;20194;-77
2023/02/01 13:45:45;;;;;;;19.33;6.20;;;;;;;;;;5109482;28;20293;-77
2023/02/01 13:48:18;;;;;;;15.70;4.90;;;;;;;;;;5110679;28;20308;-77
2023/02/01 13:50:51;;;;;;;17.30;3.80;;;;;;;;;;5111310;28;20231;-78
2023/02/01 13:53:20;;;;;;;20.43;3.93;;;;;;;;;;5111200;28;20302;-79
2023/02/01 13:55:48;;;;;;;14.87;3.13;;;;;;;;;;5110666;28;20222;-79
2023/02/01 13:58:17;;;;;;;15.03;3.10;;;;;;;;;;5106878;28;20290;-78
2023/02/01 14:00:44;;;;;;;13.83;3.30;;;;;;;;;;5110449;28;20204;-75
2023/02/01 14:03:15;;;;;;;17.57;3.90;;;;;;;;;;5104179;28;20741;-78
2023/02/01 14:06:17;;;;;;;9.30;3.43;;;;;;;;;;5109884;28;20322;-80
2023/02/01 14:09:08;;;;;;;20.50;3.70;;;;;;;;;;5100135;28;20217;-80
2023/02/01 14:11:37;;;;;;;13.27;3.40;;;;;;;;;;5109125;28;20222;-84
2023/02/01 14:14:24;;;;;;;16.40;3.40;;;;;;;;;;5105526;28;20256;-80
2023/02/01 14:17:06;;;;;;;16.20;3.70;;;;;;;;;;5112442;28;20288;-78
2023/02/01 14:19:34;;;;;;;15.50;3.70;;;;;;;;;;5106136;28;20217;-78
2023/02/01 14:22:02;;;;;;;12.93;3.57;;;;;;;;;;5113967;28;20190;-78
2023/02/01 14:24:31;;;;;;;15.87;3.93;;;;;;;;;;5114787;28;20217;-79
2023/02/01 14:27:00;;;;;;;13.20;3.43;;;;;;;;;;5110085;28;20383;-81
2023/02/01 14:29:28;;;;;;;16.50;3.10;;;;;;;;;;5114136;28;20267;-81
2023/02/01 14:32:03;;;;;;;15.10;4.47;;;;;;;;;;5113722;28;20240;-79
2023/02/01 14:34:42;;;;;;;22.57;4.27;;;;;;;;;;5107644;28;20248;-78
2023/02/01 14:37:10;;;;;;;18.90;3.50;;;;;;;;;;5113843;28;20246;-77
2023/02/01 14:39:47;;;;;;;15.57;3.80;;;;;;;;;;5111035;28;20193;-76
2023/02/01 14:42:20;;;;;;;16.87;4.00;;;;;;;;;;5097693;28;20285;-76
2023/02/01 14:44:47;;;;;;;15.87;3.77;;;;;;;;;;5109870;28;20201;-76
2023/02/01 14:47:32;;;;;;;12.07;3.53;;;;;;;;;;5113542;28;20225;-75
2023/02/01 14:50:23;;;;;;;14.77;3.73;;;;;;;;;;5110527;28;20206;-76
2023/02/01 14:52:53;;;;;;;15.10;3.43;;;;;;;;;;5113901;28;20251;-75
2023/02/01 14:55:26;;;;;;;13.60;3.47;;;;;;;;;;5109040;28;20325;-75
2023/02/01 14:57:55;;;;;;;16.27;3.43;;;;;;;;;;5108954;28;20628;-74
2023/02/01 15:00:26;;;;;;;20.47;3.80;;;;;;;;;;5106179;28;20229;-75
2023/02/01 15:02:54;;;;;;;11.73;3.50;;;;;;;;;;5106604;28;20201;-74
2023/02/01 15:05:33;;;;;;;16.00;4.10;;;;;;;;;;5113024;28;20723;-73
2023/02/01 15:08:15;;;;;;;15.43;3.53;;;;;;;;;;5113126;28;20201;-73
2023/02/01 15:10:46;;;;;;;18.40;3.70;;;;;;;;;;5110165;28;20281;-76
2023/02/01 15:13:23;;;;;;;15.90;3.63;;;;;;;;;;5113047;28;20292;-76